sensor_id;sensor_type;location;lat;lon;timestamp;P1;durP1;ratioP1;P2;durP2;ratioP2
71141;SDS011;58808;59.366;17.970;2022-12-18T00:02:09;7.45;;;3.60;;
71141;SDS011;58808;59.366;17.970;2022-12-18T00:04:35;10.95;;;6.35;;
71141;SDS011;58808;59.366;17.970;2022-12-18T00:07:01;16.88;;;7.55;;
71141;SDS011;58808;59.366;17.970;2022-12-18T00:09:26;5.50;;;3.03;;
71141;SDS011;58808;59.366;17.970;2022-12-18T00:11:52;9.10;;;3.88;;
71141;SDS011;58808;59.366;17.970;2022-12-18T00:14:18;4.03;;;3.35;;
71141;SDS011;58808;59.366;17.970;2022-12-18T00:16:44;11.95;;;6.93;;
71141;SDS011;58808;59.366;17.970;2022-12-18T00:19:10;14.35;;;8.38;;
71141;SDS011;58808;59.366;17.970;2022-12-18T00:21:36;6.30;;;4.78;;
71141;SDS011;58808;59.366;17.970;2022-12-18T00:24:01;6.30;;;3.90;;
71141;SDS011;58808;59.366;17.970;2022-12-18T00:26:28;6.97;;;4.53;;
71141;SDS011;58808;59.366;17.970;2022-12-18T00:29:00;6.57;;;4.25;;
71141;SDS011;58808;59.366;17.970;2022-12-18T00:31:27;15.05;;;6.47;;
71141;SDS011;58808;59.366;17.970;2022-12-18T00:33:53;4.20;;;2.95;;
71141;SDS011;58808;59.366;17.970;2022-12-18T00:36:22;8.32;;;4.13;;
71141;SDS011;58808;59.366;17.970;2022-12-18T00:38:49;7.05;;;4.88;;
71141;SDS011;58808;59.366;17.970;2022-12-18T00:41:15;6.05;;;4.25;;
71141;SDS011;58808;59.366;17.970;2022-12-18T00:44:02;10.90;;;6.57;;
71141;SDS011;58808;59.366;17.970;2022-12-18T00:46:28;10.70;;;5.90;;
71141;SDS011;58808;59.366;17.970;2022-12-18T00:48:53;3.25;;;2.95;;
71141;SDS011;58808;59.366;17.970;2022-12-18T00:51:19;4.75;;;3.40;;
71141;SDS011;58808;59.366;17.970;2022-12-18T00:53:45;6.00;;;4.53;;
71141;SDS011;58808;59.366;17.970;2022-12-18T00:56:10;12.07;;;7.20;;
71141;SDS011;58808;59.366;17.970;2022-12-18T00:58:36;6.75;;;4.53;;
71141;SDS011;58808;59.366;17.970;2022-12-18T01:01:03;11.95;;;6.85;;
71141;SDS011;58808;59.366;17.970;2022-12-18T01:03:30;10.10;;;4.90;;
71141;SDS011;58808;59.366;17.970;2022-12-18T01:05:55;9.05;;;6.20;;
71141;SDS011;58808;59.366;17.970;2022-12-18T01:08:21;10.10;;;5.32;;
71141;SDS011;58808;59.366;17.970;2022-12-18T01:10:47;8.57;;;4.65;;
71141;SDS011;58808;59.366;17.970;2022-12-18T01:13:13;14.75;;;6.47;;
71141;SDS011;58808;59.366;17.970;2022-12-18T01:15:39;6.88;;;4.13;;
71141;SDS011;58808;59.366;17.970;2022-12-18T01:18:05;8.00;;;4.55;;
71141;SDS011;58808;59.366;17.970;2022-12-18T01:20:31;6.55;;;4.15;;
71141;SDS011;58808;59.366;17.970;2022-12-18T01:22:57;6.78;;;3.78;;
71141;SDS011;58808;59.366;17.970;2022-12-18T01:25:22;3.08;;;2.78;;
71141;SDS011;58808;59.366;17.970;2022-12-18T01:27:48;13.30;;;7.68;;
71141;SDS011;58808;59.366;17.970;2022-12-18T01:30:14;4.80;;;3.45;;
71141;SDS011;58808;59.366;17.970;2022-12-18T01:32:40;15.00;;;6.03;;
71141;SDS011;58808;59.366;17.970;2022-12-18T01:35:05;5.65;;;3.58;;
71141;SDS011;58808;59.366;17.970;2022-12-18T01:37:32;11.00;;;5.38;;
71141;SDS011;58808;59.366;17.970;2022-12-18T01:39:58;16.88;;;7.70;;
71141;SDS011;58808;59.366;17.970;2022-12-18T01:42:23;11.13;;;5.03;;
71141;SDS011;58808;59.366;17.970;2022-12-18T01:52:38;13.55;;;6.68;;
71141;SDS011;58808;59.366;17.970;2022-12-18T01:55:10;13.48;;;6.10;;
71141;SDS011;58808;59.366;17.970;2022-12-18T01:57:37;11.63;;;7.60;;
71141;SDS011;58808;59.366;17.970;2022-12-18T02:00:08;13.93;;;6.65;;
71141;SDS011;58808;59.366;17.970;2022-12-18T02:02:41;14.35;;;6.82;;
71141;SDS011;58808;59.366;17.970;2022-12-18T02:05:08;3.75;;;3.30;;
71141;SDS011;58808;59.366;17.970;2022-12-18T02:10:34;7.82;;;5.10;;
71141;SDS011;58808;59.366;17.970;2022-12-18T02:18:46;6.65;;;4.95;;
71141;SDS011;58808;59.366;17.970;2022-12-18T02:26:50;6.43;;;3.83;;
71141;SDS011;58808;59.366;17.970;2022-12-18T02:29:29;11.00;;;6.57;;
71141;SDS011;58808;59.366;17.970;2022-12-18T02:32:10;13.27;;;5.70;;
71141;SDS011;58808;59.366;17.970;2022-12-18T02:34:39;13.13;;;5.25;;
71141;SDS011;58808;59.366;17.970;2022-12-18T02:37:07;12.77;;;6.78;;
71141;SDS011;58808;59.366;17.970;2022-12-18T02:39:37;6.63;;;5.30;;
71141;SDS011;58808;59.366;17.970;2022-12-18T02:42:05;8.82;;;4.55;;
71141;SDS011;58808;59.366;17.970;2022-12-18T02:44:35;11.02;;;4.82;;
71141;SDS011;58808;59.366;17.970;2022-12-18T02:47:08;12.27;;;7.57;;
71141;SDS011;58808;59.366;17.970;2022-12-18T02:57:48;8.60;;;5.13;;
71141;SDS011;58808;59.366;17.970;2022-12-18T03:00:38;6.22;;;4.50;;
71141;SDS011;58808;59.366;17.970;2022-12-18T03:03:10;13.35;;;7.13;;
71141;SDS011;58808;59.366;17.970;2022-12-18T03:08:28;10.23;;;7.13;;
71141;SDS011;58808;59.366;17.970;2022-12-18T03:11:03;11.80;;;6.45;;
71141;SDS011;58808;59.366;17.970;2022-12-18T03:13:39;11.32;;;6.93;;
71141;SDS011;58808;59.366;17.970;2022-12-18T03:16:16;11.27;;;7.00;;
71141;SDS011;58808;59.366;17.970;2022-12-18T03:18:52;11.60;;;6.30;;
71141;SDS011;58808;59.366;17.970;2022-12-18T03:21:23;5.72;;;4.03;;
71141;SDS011;58808;59.366;17.970;2022-12-18T03:23:58;9.68;;;6.03;;
71141;SDS011;58808;59.366;17.970;2022-12-18T03:26:26;10.10;;;4.88;;
71141;SDS011;58808;59.366;17.970;2022-12-18T03:29:02;10.45;;;4.70;;
71141;SDS011;58808;59.366;17.970;2022-12-18T03:31:32;7.50;;;3.88;;
71141;SDS011;58808;59.366;17.970;2022-12-18T03:33:59;8.73;;;4.70;;
71141;SDS011;58808;59.366;17.970;2022-12-18T03:36:29;5.45;;;3.45;;
71141;SDS011;58808;59.366;17.970;2022-12-18T03:38:56;7.68;;;5.00;;
71141;SDS011;58808;59.366;17.970;2022-12-18T03:44:02;9.65;;;5.05;;
71141;SDS011;58808;59.366;17.970;2022-12-18T03:46:52;6.30;;;4.05;;
71141;SDS011;58808;59.366;17.970;2022-12-18T03:52:13;11.75;;;6.32;;
71141;SDS011;58808;59.366;17.970;2022-12-18T03:54:43;8.30;;;4.95;;
71141;SDS011;58808;59.366;17.970;2022-12-18T03:57:15;9.52;;;5.90;;
71141;SDS011;58808;59.366;17.970;2022-12-18T03:59:45;14.37;;;5.47;;
71141;SDS011;58808;59.366;17.970;2022-12-18T04:02:12;6.85;;;4.10;;
71141;SDS011;58808;59.366;17.970;2022-12-18T04:04:41;10.68;;;6.47;;
71141;SDS011;58808;59.366;17.970;2022-12-18T04:07:08;5.00;;;4.20;;
71141;SDS011;58808;59.366;17.970;2022-12-18T04:09:35;10.85;;;5.93;;
71141;SDS011;58808;59.366;17.970;2022-12-18T04:12:03;6.78;;;3.90;;
71141;SDS011;58808;59.366;17.970;2022-12-18T04:14:29;2.30;;;2.17;;
71141;SDS011;58808;59.366;17.970;2022-12-18T04:16:55;5.07;;;3.78;;
71141;SDS011;58808;59.366;17.970;2022-12-18T04:19:21;11.13;;;5.35;;
71141;SDS011;58808;59.366;17.970;2022-12-18T04:21:46;4.18;;;3.20;;
71141;SDS011;58808;59.366;17.970;2022-12-18T04:24:12;11.85;;;7.47;;
71141;SDS011;58808;59.366;17.970;2022-12-18T04:26:37;8.82;;;5.43;;
71141;SDS011;58808;59.366;17.970;2022-12-18T04:29:03;11.95;;;6.43;;
71141;SDS011;58808;59.366;17.970;2022-12-18T04:31:29;4.40;;;3.20;;
71141;SDS011;58808;59.366;17.970;2022-12-18T04:33:54;10.00;;;5.55;;
71141;SDS011;58808;59.366;17.970;2022-12-18T04:36:20;7.47;;;4.55;;
71141;SDS011;58808;59.366;17.970;2022-12-18T04:38:46;7.25;;;5.18;;
71141;SDS011;58808;59.366;17.970;2022-12-18T04:41:11;7.97;;;3.95;;
71141;SDS011;58808;59.366;17.970;2022-12-18T04:43:37;7.07;;;5.15;;
71141;SDS011;58808;59.366;17.970;2022-12-18T04:46:06;9.50;;;6.35;;
71141;SDS011;58808;59.366;17.970;2022-12-18T04:48:32;8.52;;;6.28;;
71141;SDS011;58808;59.366;17.970;2022-12-18T04:50:58;11.30;;;6.28;;
71141;SDS011;58808;59.366;17.970;2022-12-18T04:53:24;7.40;;;3.30;;
71141;SDS011;58808;59.366;17.970;2022-12-18T04:55:50;7.50;;;4.57;;
71141;SDS011;58808;59.366;17.970;2022-12-18T04:58:26;7.63;;;5.20;;
71141;SDS011;58808;59.366;17.970;2022-12-18T05:00:52;9.48;;;5.80;;
71141;SDS011;58808;59.366;17.970;2022-12-18T05:03:17;9.50;;;6.15;;
71141;SDS011;58808;59.366;17.970;2022-12-18T05:05:43;13.13;;;5.80;;
71141;SDS011;58808;59.366;17.970;2022-12-18T05:08:09;12.88;;;6.97;;
71141;SDS011;58808;59.366;17.970;2022-12-18T05:10:34;11.80;;;7.38;;
71141;SDS011;58808;59.366;17.970;2022-12-18T05:13:00;7.40;;;4.28;;
71141;SDS011;58808;59.366;17.970;2022-12-18T05:15:30;9.18;;;5.30;;
71141;SDS011;58808;59.366;17.970;2022-12-18T05:17:56;10.73;;;5.55;;
71141;SDS011;58808;59.366;17.970;2022-12-18T05:20:23;6.55;;;4.82;;
71141;SDS011;58808;59.366;17.970;2022-12-18T05:22:49;6.00;;;4.47;;
71141;SDS011;58808;59.366;17.970;2022-12-18T05:25:16;6.35;;;4.47;;
71141;SDS011;58808;59.366;17.970;2022-12-18T05:27:42;8.80;;;6.18;;
71141;SDS011;58808;59.366;17.970;2022-12-18T05:30:07;3.60;;;3.00;;
71141;SDS011;58808;59.366;17.970;2022-12-18T05:32:34;8.05;;;5.00;;
71141;SDS011;58808;59.366;17.970;2022-12-18T05:34:59;13.88;;;6.68;;
71141;SDS011;58808;59.366;17.970;2022-12-18T05:37:25;8.05;;;5.25;;
71141;SDS011;58808;59.366;17.970;2022-12-18T05:39:51;14.18;;;6.35;;
71141;SDS011;58808;59.366;17.970;2022-12-18T05:42:16;10.50;;;6.20;;
71141;SDS011;58808;59.366;17.970;2022-12-18T05:44:43;3.40;;;3.10;;
71141;SDS011;58808;59.366;17.970;2022-12-18T05:47:09;7.80;;;4.65;;
71141;SDS011;58808;59.366;17.970;2022-12-18T05:49:34;8.30;;;5.15;;
71141;SDS011;58808;59.366;17.970;2022-12-18T05:52:00;13.20;;;6.63;;
71141;SDS011;58808;59.366;17.970;2022-12-18T05:54:27;9.70;;;5.75;;
71141;SDS011;58808;59.366;17.970;2022-12-18T05:56:53;8.88;;;3.15;;
71141;SDS011;58808;59.366;17.970;2022-12-18T05:59:19;8.35;;;5.40;;
71141;SDS011;58808;59.366;17.970;2022-12-18T06:01:45;11.52;;;6.00;;
71141;SDS011;58808;59.366;17.970;2022-12-18T06:04:10;9.15;;;4.80;;
71141;SDS011;58808;59.366;17.970;2022-12-18T06:06:36;7.93;;;5.57;;
71141;SDS011;58808;59.366;17.970;2022-12-18T06:09:03;13.07;;;5.68;;
71141;SDS011;58808;59.366;17.970;2022-12-18T06:11:34;5.95;;;3.95;;
71141;SDS011;58808;59.366;17.970;2022-12-18T06:14:02;7.97;;;4.00;;
71141;SDS011;58808;59.366;17.970;2022-12-18T06:16:29;5.65;;;3.47;;
71141;SDS011;58808;59.366;17.970;2022-12-18T06:18:59;12.65;;;6.30;;
71141;SDS011;58808;59.366;17.970;2022-12-18T06:21:25;10.57;;;5.45;;
71141;SDS011;58808;59.366;17.970;2022-12-18T06:23:52;5.43;;;4.30;;
71141;SDS011;58808;59.366;17.970;2022-12-18T06:26:17;5.70;;;3.55;;
71141;SDS011;58808;59.366;17.970;2022-12-18T06:28:43;7.82;;;4.45;;
71141;SDS011;58808;59.366;17.970;2022-12-18T06:31:09;9.13;;;5.05;;
71141;SDS011;58808;59.366;17.970;2022-12-18T06:33:36;8.13;;;4.95;;
71141;SDS011;58808;59.366;17.970;2022-12-18T06:36:03;3.95;;;3.33;;
71141;SDS011;58808;59.366;17.970;2022-12-18T06:38:29;5.25;;;4.05;;
71141;SDS011;58808;59.366;17.970;2022-12-18T06:40:56;9.50;;;4.50;;
71141;SDS011;58808;59.366;17.970;2022-12-18T06:43:22;6.10;;;3.47;;
71141;SDS011;58808;59.366;17.970;2022-12-18T06:45:48;10.07;;;5.82;;
71141;SDS011;58808;59.366;17.970;2022-12-18T06:48:17;7.30;;;4.50;;
71141;SDS011;58808;59.366;17.970;2022-12-18T06:50:44;9.82;;;6.22;;
71141;SDS011;58808;59.366;17.970;2022-12-18T06:53:10;9.75;;;5.85;;
71141;SDS011;58808;59.366;17.970;2022-12-18T06:55:36;4.78;;;3.75;;
71141;SDS011;58808;59.366;17.970;2022-12-18T06:58:02;6.13;;;4.22;;
71141;SDS011;58808;59.366;17.970;2022-12-18T07:00:28;9.23;;;5.97;;
71141;SDS011;58808;59.366;17.970;2022-12-18T07:02:54;3.13;;;2.55;;
71141;SDS011;58808;59.366;17.970;2022-12-18T07:05:19;3.50;;;3.03;;
71141;SDS011;58808;59.366;17.970;2022-12-18T07:07:45;9.55;;;4.43;;
71141;SDS011;58808;59.366;17.970;2022-12-18T07:10:11;5.60;;;3.83;;
71141;SDS011;58808;59.366;17.970;2022-12-18T07:12:36;11.25;;;6.72;;
71141;SDS011;58808;59.366;17.970;2022-12-18T07:15:02;8.40;;;5.78;;
71141;SDS011;58808;59.366;17.970;2022-12-18T07:17:28;10.95;;;4.00;;
71141;SDS011;58808;59.366;17.970;2022-12-18T07:19:54;5.30;;;3.95;;
71141;SDS011;58808;59.366;17.970;2022-12-18T07:22:20;4.10;;;3.50;;
71141;SDS011;58808;59.366;17.970;2022-12-18T07:24:46;4.40;;;3.65;;
71141;SDS011;58808;59.366;17.970;2022-12-18T07:27:11;8.90;;;5.68;;
71141;SDS011;58808;59.366;17.970;2022-12-18T07:29:37;11.85;;;6.60;;
71141;SDS011;58808;59.366;17.970;2022-12-18T07:32:03;7.45;;;4.43;;
71141;SDS011;58808;59.366;17.970;2022-12-18T07:34:29;7.93;;;5.47;;
71141;SDS011;58808;59.366;17.970;2022-12-18T07:36:54;14.10;;;7.30;;
71141;SDS011;58808;59.366;17.970;2022-12-18T07:39:20;5.03;;;4.05;;
71141;SDS011;58808;59.366;17.970;2022-12-18T07:41:46;5.85;;;3.90;;
71141;SDS011;58808;59.366;17.970;2022-12-18T07:44:31;10.82;;;5.30;;
71141;SDS011;58808;59.366;17.970;2022-12-18T07:46:57;6.55;;;4.65;;
71141;SDS011;58808;59.366;17.970;2022-12-18T07:49:23;4.63;;;3.58;;
71141;SDS011;58808;59.366;17.970;2022-12-18T07:51:48;11.85;;;6.32;;
71141;SDS011;58808;59.366;17.970;2022-12-18T07:54:14;8.70;;;6.00;;
71141;SDS011;58808;59.366;17.970;2022-12-18T07:56:40;4.80;;;3.95;;
71141;SDS011;58808;59.366;17.970;2022-12-18T07:59:05;13.57;;;6.35;;
71141;SDS011;58808;59.366;17.970;2022-12-18T08:01:31;6.65;;;4.85;;
71141;SDS011;58808;59.366;17.970;2022-12-18T08:03:58;6.70;;;4.95;;
71141;SDS011;58808;59.366;17.970;2022-12-18T08:06:24;12.38;;;5.43;;
71141;SDS011;58808;59.366;17.970;2022-12-18T08:08:54;5.05;;;4.43;;
71141;SDS011;58808;59.366;17.970;2022-12-18T08:11:21;9.63;;;5.30;;
71141;SDS011;58808;59.366;17.970;2022-12-18T08:13:48;13.50;;;5.50;;
71141;SDS011;58808;59.366;17.970;2022-12-18T08:16:14;11.45;;;6.65;;
71141;SDS011;58808;59.366;17.970;2022-12-18T08:18:39;7.25;;;4.25;;
71141;SDS011;58808;59.366;17.970;2022-12-18T08:21:12;8.80;;;4.47;;
71141;SDS011;58808;59.366;17.970;2022-12-18T08:26:06;3.40;;;2.90;;
71141;SDS011;58808;59.366;17.970;2022-12-18T08:28:32;8.13;;;4.25;;
71141;SDS011;58808;59.366;17.970;2022-12-18T08:30:58;10.18;;;5.18;;
71141;SDS011;58808;59.366;17.970;2022-12-18T08:33:24;5.50;;;3.97;;
71141;SDS011;58808;59.366;17.970;2022-12-18T08:35:51;9.65;;;5.50;;
71141;SDS011;58808;59.366;17.970;2022-12-18T08:38:17;6.00;;;5.15;;
71141;SDS011;58808;59.366;17.970;2022-12-18T08:40:42;12.13;;;6.07;;
71141;SDS011;58808;59.366;17.970;2022-12-18T08:43:11;5.00;;;3.78;;
71141;SDS011;58808;59.366;17.970;2022-12-18T08:45:55;10.07;;;6.53;;
71141;SDS011;58808;59.366;17.970;2022-12-18T08:48:22;8.68;;;5.45;;
71141;SDS011;58808;59.366;17.970;2022-12-18T08:50:54;12.68;;;6.75;;
71141;SDS011;58808;59.366;17.970;2022-12-18T08:53:21;14.15;;;5.75;;
71141;SDS011;58808;59.366;17.970;2022-12-18T08:55:46;10.98;;;5.28;;
71141;SDS011;58808;59.366;17.970;2022-12-18T08:58:12;5.65;;;4.35;;
71141;SDS011;58808;59.366;17.970;2022-12-18T09:00:37;8.80;;;5.15;;
71141;SDS011;58808;59.366;17.970;2022-12-18T09:03:03;11.10;;;6.65;;
71141;SDS011;58808;59.366;17.970;2022-12-18T09:05:29;10.32;;;6.68;;
71141;SDS011;58808;59.366;17.970;2022-12-18T09:07:55;7.38;;;4.60;;
71141;SDS011;58808;59.366;17.970;2022-12-18T09:10:21;12.80;;;7.32;;
71141;SDS011;58808;59.366;17.970;2022-12-18T09:12:47;14.27;;;8.10;;
71141;SDS011;58808;59.366;17.970;2022-12-18T09:15:12;13.43;;;7.38;;
71141;SDS011;58808;59.366;17.970;2022-12-18T09:17:38;6.45;;;5.00;;
71141;SDS011;58808;59.366;17.970;2022-12-18T09:20:04;7.03;;;5.20;;
71141;SDS011;58808;59.366;17.970;2022-12-18T09:22:30;10.93;;;5.90;;
71141;SDS011;58808;59.366;17.970;2022-12-18T09:24:56;8.07;;;5.45;;
71141;SDS011;58808;59.366;17.970;2022-12-18T09:27:21;5.38;;;4.47;;
71141;SDS011;58808;59.366;17.970;2022-12-18T09:29:47;12.00;;;7.38;;
71141;SDS011;58808;59.366;17.970;2022-12-18T09:32:13;7.85;;;4.95;;
71141;SDS011;58808;59.366;17.970;2022-12-18T09:34:39;14.60;;;8.38;;
71141;SDS011;58808;59.366;17.970;2022-12-18T09:37:05;13.30;;;7.28;;
71141;SDS011;58808;59.366;17.970;2022-12-18T09:39:30;12.55;;;8.38;;
71141;SDS011;58808;59.366;17.970;2022-12-18T09:41:57;14.10;;;8.80;;
71141;SDS011;58808;59.366;17.970;2022-12-18T09:44:38;8.68;;;6.43;;
71141;SDS011;58808;59.366;17.970;2022-12-18T09:47:11;12.25;;;6.30;;
71141;SDS011;58808;59.366;17.970;2022-12-18T09:49:44;9.27;;;5.13;;
71141;SDS011;58808;59.366;17.970;2022-12-18T09:54:55;11.98;;;6.10;;
71141;SDS011;58808;59.366;17.970;2022-12-18T09:57:45;12.50;;;6.25;;
71141;SDS011;58808;59.366;17.970;2022-12-18T10:00:20;11.73;;;4.55;;
71141;SDS011;58808;59.366;17.970;2022-12-18T10:02:47;7.72;;;4.90;;
71141;SDS011;58808;59.366;17.970;2022-12-18T10:05:17;5.28;;;3.83;;
71141;SDS011;58808;59.366;17.970;2022-12-18T10:08:40;9.95;;;4.50;;
71141;SDS011;58808;59.366;17.970;2022-12-18T10:10:57;9.63;;;5.10;;
71141;SDS011;58808;59.366;17.970;2022-12-18T10:13:40;12.02;;;5.18;;
71141;SDS011;58808;59.366;17.970;2022-12-18T10:16:22;10.88;;;5.57;;
71141;SDS011;58808;59.366;17.970;2022-12-18T10:22:34;14.68;;;7.07;;
71141;SDS011;58808;59.366;17.970;2022-12-18T10:25:23;12.02;;;7.10;;
71141;SDS011;58808;59.366;17.970;2022-12-18T10:27:52;10.25;;;7.85;;
71141;SDS011;58808;59.366;17.970;2022-12-18T10:30:21;11.07;;;3.80;;
71141;SDS011;58808;59.366;17.970;2022-12-18T10:32:48;7.13;;;4.78;;
71141;SDS011;58808;59.366;17.970;2022-12-18T10:35:17;10.20;;;5.90;;
71141;SDS011;58808;59.366;17.970;2022-12-18T10:37:59;14.05;;;7.10;;
71141;SDS011;58808;59.366;17.970;2022-12-18T10:40:26;9.38;;;5.72;;
71141;SDS011;58808;59.366;17.970;2022-12-18T10:43:11;13.45;;;6.80;;
71141;SDS011;58808;59.366;17.970;2022-12-18T10:45:38;8.88;;;4.65;;
71141;SDS011;58808;59.366;17.970;2022-12-18T10:48:04;6.90;;;4.85;;
71141;SDS011;58808;59.366;17.970;2022-12-18T10:50:43;9.75;;;5.90;;
71141;SDS011;58808;59.366;17.970;2022-12-18T10:53:16;11.70;;;7.57;;
71141;SDS011;58808;59.366;17.970;2022-12-18T10:55:50;6.10;;;5.35;;
71141;SDS011;58808;59.366;17.970;2022-12-18T11:03:46;9.38;;;4.68;;
71141;SDS011;58808;59.366;17.970;2022-12-18T11:06:24;11.80;;;5.38;;
71141;SDS011;58808;59.366;17.970;2022-12-18T11:08:57;12.07;;;7.20;;
71141;SDS011;58808;59.366;17.970;2022-12-18T11:11:27;10.88;;;7.07;;
71141;SDS011;58808;59.366;17.970;2022-12-18T11:16:19;13.13;;;7.35;;
71141;SDS011;58808;59.366;17.970;2022-12-18T11:18:45;14.90;;;6.78;;
71141;SDS011;58808;59.366;17.970;2022-12-18T11:21:11;7.30;;;3.92;;
71141;SDS011;58808;59.366;17.970;2022-12-18T11:23:44;7.43;;;4.78;;
71141;SDS011;58808;59.366;17.970;2022-12-18T11:26:17;7.78;;;3.80;;
71141;SDS011;58808;59.366;17.970;2022-12-18T11:28:51;12.25;;;5.93;;
71141;SDS011;58808;59.366;17.970;2022-12-18T11:31:31;9.65;;;6.03;;
71141;SDS011;58808;59.366;17.970;2022-12-18T11:36:28;8.80;;;5.40;;
71141;SDS011;58808;59.366;17.970;2022-12-18T11:38:58;6.20;;;4.25;;
71141;SDS011;58808;59.366;17.970;2022-12-18T11:41:31;7.60;;;4.72;;
71141;SDS011;58808;59.366;17.970;2022-12-18T11:44:22;7.60;;;4.40;;
71141;SDS011;58808;59.366;17.970;2022-12-18T11:46:55;5.32;;;4.75;;
71141;SDS011;58808;59.366;17.970;2022-12-18T11:49:49;6.88;;;4.03;;
71141;SDS011;58808;59.366;17.970;2022-12-18T11:54:59;9.82;;;4.90;;
71141;SDS011;58808;59.366;17.970;2022-12-18T12:00:12;7.43;;;4.35;;
71141;SDS011;58808;59.366;17.970;2022-12-18T12:02:48;7.03;;;4.72;;
71141;SDS011;58808;59.366;17.970;2022-12-18T12:14:19;6.20;;;4.47;;
71141;SDS011;58808;59.366;17.970;2022-12-18T12:25:40;8.18;;;4.88;;
71141;SDS011;58808;59.366;17.970;2022-12-18T12:28:25;7.32;;;4.10;;
71141;SDS011;58808;59.366;17.970;2022-12-18T12:31:09;4.03;;;3.47;;
71141;SDS011;58808;59.366;17.970;2022-12-18T12:33:58;5.43;;;3.35;;
71141;SDS011;58808;59.366;17.970;2022-12-18T12:39:24;3.60;;;2.83;;
71141;SDS011;58808;59.366;17.970;2022-12-18T12:41:55;5.43;;;3.97;;
71141;SDS011;58808;59.366;17.970;2022-12-18T12:47:12;3.72;;;3.05;;
71141;SDS011;58808;59.366;17.970;2022-12-18T12:49:43;7.88;;;3.97;;
71141;SDS011;58808;59.366;17.970;2022-12-18T12:52:14;7.28;;;3.90;;
71141;SDS011;58808;59.366;17.970;2022-12-18T12:54:46;6.18;;;3.97;;
71141;SDS011;58808;59.366;17.970;2022-12-18T12:57:16;19.05;;;4.88;;
71141;SDS011;58808;59.366;17.970;2022-12-18T12:59:51;6.50;;;2.88;;
71141;SDS011;58808;59.366;17.970;2022-12-18T13:05:24;3.45;;;3.15;;
71141;SDS011;58808;59.366;17.970;2022-12-18T13:08:09;4.70;;;2.80;;
71141;SDS011;58808;59.366;17.970;2022-12-18T13:10:39;3.50;;;2.83;;
71141;SDS011;58808;59.366;17.970;2022-12-18T13:13:12;9.30;;;3.70;;
71141;SDS011;58808;59.366;17.970;2022-12-18T13:18:23;8.13;;;4.18;;
71141;SDS011;58808;59.366;17.970;2022-12-18T13:20:51;8.52;;;4.93;;
71141;SDS011;58808;59.366;17.970;2022-12-18T13:23:50;6.47;;;4.35;;
71141;SDS011;58808;59.366;17.970;2022-12-18T13:33:54;7.18;;;2.78;;
71141;SDS011;58808;59.366;17.970;2022-12-18T13:36:42;7.07;;;2.78;;
71141;SDS011;58808;59.366;17.970;2022-12-18T13:39:10;3.78;;;2.53;;
71141;SDS011;58808;59.366;17.970;2022-12-18T13:41:40;5.25;;;3.00;;
71141;SDS011;58808;59.366;17.970;2022-12-18T13:44:11;2.75;;;2.47;;
71141;SDS011;58808;59.366;17.970;2022-12-18T13:46:56;9.93;;;4.60;;
71141;SDS011;58808;59.366;17.970;2022-12-18T13:49:23;4.43;;;2.25;;
71141;SDS011;58808;59.366;17.970;2022-12-18T13:51:53;4.15;;;2.80;;
71141;SDS011;58808;59.366;17.970;2022-12-18T13:54:32;4.93;;;3.08;;
71141;SDS011;58808;59.366;17.970;2022-12-18T13:57:00;3.78;;;2.75;;
71141;SDS011;58808;59.366;17.970;2022-12-18T13:59:35;3.55;;;2.40;;
71141;SDS011;58808;59.366;17.970;2022-12-18T14:02:19;4.18;;;2.78;;
71141;SDS011;58808;59.366;17.970;2022-12-18T14:04:49;3.28;;;2.20;;
71141;SDS011;58808;59.366;17.970;2022-12-18T14:07:21;9.68;;;3.05;;
71141;SDS011;58808;59.366;17.970;2022-12-18T14:09:50;8.60;;;3.58;;
71141;SDS011;58808;59.366;17.970;2022-12-18T14:12:27;7.40;;;3.33;;
71141;SDS011;58808;59.366;17.970;2022-12-18T14:20:26;6.15;;;3.40;;
71141;SDS011;58808;59.366;17.970;2022-12-18T14:22:54;2.63;;;1.90;;
71141;SDS011;58808;59.366;17.970;2022-12-18T14:25:23;4.25;;;2.13;;
71141;SDS011;58808;59.366;17.970;2022-12-18T14:30:35;2.22;;;1.90;;
71141;SDS011;58808;59.366;17.970;2022-12-18T14:33:03;8.45;;;2.90;;
71141;SDS011;58808;59.366;17.970;2022-12-18T14:35:51;7.63;;;2.40;;
71141;SDS011;58808;59.366;17.970;2022-12-18T14:38:26;6.55;;;4.72;;
71141;SDS011;58808;59.366;17.970;2022-12-18T14:43:29;8.38;;;6.63;;
71141;SDS011;58808;59.366;17.970;2022-12-18T14:45:59;4.95;;;2.58;;
71141;SDS011;58808;59.366;17.970;2022-12-18T14:53:33;2.95;;;2.65;;
71141;SDS011;58808;59.366;17.970;2022-12-18T14:58:46;10.48;;;4.35;;
71141;SDS011;58808;59.366;17.970;2022-12-18T15:01:18;3.58;;;3.22;;
71141;SDS011;58808;59.366;17.970;2022-12-18T15:03:48;1.93;;;1.73;;
71141;SDS011;58808;59.366;17.970;2022-12-18T15:08:53;2.15;;;1.80;;
71141;SDS011;58808;59.366;17.970;2022-12-18T15:12:02;2.85;;;2.33;;
71141;SDS011;58808;59.366;17.970;2022-12-18T15:14:23;4.45;;;2.20;;
71141;SDS011;58808;59.366;17.970;2022-12-18T15:17:14;2.03;;;1.83;;
71141;SDS011;58808;59.366;17.970;2022-12-18T15:19:42;4.47;;;2.22;;
71141;SDS011;58808;59.366;17.970;2022-12-18T15:22:42;2.70;;;1.77;;
71141;SDS011;58808;59.366;17.970;2022-12-18T15:25:02;2.78;;;1.63;;
71141;SDS011;58808;59.366;17.970;2022-12-18T15:27:45;3.75;;;3.05;;
71141;SDS011;58808;59.366;17.970;2022-12-18T15:30:16;5.15;;;1.88;;
71141;SDS011;58808;59.366;17.970;2022-12-18T15:32:44;7.80;;;2.42;;
71141;SDS011;58808;59.366;17.970;2022-12-18T15:37:39;1.63;;;1.40;;
71141;SDS011;58808;59.366;17.970;2022-12-18T15:40:11;1.65;;;1.40;;
71141;SDS011;58808;59.366;17.970;2022-12-18T15:42:41;7.22;;;1.50;;
71141;SDS011;58808;59.366;17.970;2022-12-18T15:45:26;1.98;;;1.40;;
71141;SDS011;58808;59.366;17.970;2022-12-18T15:47:52;3.30;;;1.70;;
71141;SDS011;58808;59.366;17.970;2022-12-18T15:50:18;3.88;;;1.90;;
71141;SDS011;58808;59.366;17.970;2022-12-18T15:52:45;4.53;;;2.20;;
71141;SDS011;58808;59.366;17.970;2022-12-18T15:55:18;1.80;;;1.70;;
71141;SDS011;58808;59.366;17.970;2022-12-18T15:58:06;2.00;;;1.58;;
71141;SDS011;58808;59.366;17.970;2022-12-18T16:00:36;6.43;;;2.35;;
71141;SDS011;58808;59.366;17.970;2022-12-18T16:03:03;1.60;;;1.48;;
71141;SDS011;58808;59.366;17.970;2022-12-18T16:05:30;1.70;;;1.60;;
71141;SDS011;58808;59.366;17.970;2022-12-18T16:07:56;1.73;;;1.20;;
71141;SDS011;58808;59.366;17.970;2022-12-18T16:10:24;3.17;;;1.98;;
71141;SDS011;58808;59.366;17.970;2022-12-18T16:12:51;3.90;;;1.45;;
71141;SDS011;58808;59.366;17.970;2022-12-18T16:15:17;0.95;;;0.93;;
71141;SDS011;58808;59.366;17.970;2022-12-18T16:17:43;1.30;;;1.20;;
71141;SDS011;58808;59.366;17.970;2022-12-18T16:20:13;2.03;;;1.50;;
71141;SDS011;58808;59.366;17.970;2022-12-18T16:22:44;2.20;;;1.33;;
71141;SDS011;58808;59.366;17.970;2022-12-18T16:25:21;1.90;;;1.73;;
71141;SDS011;58808;59.366;17.970;2022-12-18T16:27:49;3.00;;;1.98;;
71141;SDS011;58808;59.366;17.970;2022-12-18T16:30:16;1.50;;;1.20;;
71141;SDS011;58808;59.366;17.970;2022-12-18T16:32:44;1.40;;;1.23;;
71141;SDS011;58808;59.366;17.970;2022-12-18T16:35:10;13.05;;;1.80;;
71141;SDS011;58808;59.366;17.970;2022-12-18T16:37:37;5.82;;;1.75;;
71141;SDS011;58808;59.366;17.970;2022-12-18T16:40:03;3.17;;;1.17;;
71141;SDS011;58808;59.366;17.970;2022-12-18T16:42:29;1.60;;;1.45;;
71141;SDS011;58808;59.366;17.970;2022-12-18T16:44:55;2.47;;;1.40;;
71141;SDS011;58808;59.366;17.970;2022-12-18T16:47:21;2.35;;;2.08;;
71141;SDS011;58808;59.366;17.970;2022-12-18T16:49:46;7.93;;;3.63;;